createdAt,value
2023-05-16T00:00:16.678Z,31.80
2023-05-16T00:01:16.676Z,31.79
2023-05-16T00:02:16.740Z,31.79
2023-05-16T00:03:16.787Z,31.81
2023-05-16T00:04:16.855Z,31.77
2023-05-16T00:05:16.853Z,31.80
2023-05-16T00:06:16.870Z,31.79
2023-05-16T00:07:16.927Z,31.81
2023-05-16T00:08:16.905Z,31.79
2023-05-16T00:09:17.002Z,31.86
2023-05-16T00:10:16.971Z,31.88
2023-05-16T00:11:17.026Z,31.87
2023-05-16T00:12:17.177Z,31.88
2023-05-16T00:13:17.106Z,31.89
2023-05-16T00:14:17.171Z,31.92
2023-05-16T00:15:17.186Z,31.92
2023-05-16T00:16:17.250Z,31.94
2023-05-16T00:17:17.230Z,31.91
2023-05-16T00:18:17.268Z,31.97
2023-05-16T00:19:17.391Z,31.98
2023-05-16T00:20:17.447Z,32.02
2023-05-16T00:21:17.344Z,31.97
2023-05-16T00:22:17.391Z,31.98
2023-05-16T00:23:17.453Z,31.99
2023-05-16T00:24:17.480Z,32.01
2023-05-16T00:25:17.488Z,31.99
2023-05-16T00:26:17.551Z,31.99
2023-05-16T00:27:17.545Z,32.03
2023-05-16T00:28:17.643Z,32.04
2023-05-16T00:29:17.656Z,32.03
2023-05-16T00:30:17.808Z,32.07
2023-05-16T00:31:17.773Z,32.07
2023-05-16T00:32:18.001Z,32.07
2023-05-16T00:33:17.811Z,32.09
2023-05-16T00:34:17.890Z,32.09
2023-05-16T00:35:17.871Z,32.11
2023-05-16T00:36:17.939Z,32.13
2023-05-16T00:37:17.970Z,32.11
2023-05-16T00:38:18.058Z,32.11
2023-05-16T00:39:18.067Z,32.07
2023-05-16T00:40:18.092Z,32.08
2023-05-16T00:41:18.102Z,32.06
2023-05-16T00:42:18.191Z,32.06
2023-05-16T00:43:18.250Z,32.06
2023-05-16T00:44:18.298Z,32.07
2023-05-16T00:45:18.433Z,32.14
2023-05-16T00:46:18.418Z,32.10
2023-05-16T00:47:18.325Z,32.14
2023-05-16T00:48:18.467Z,32.17
2023-05-16T00:49:18.455Z,32.14
2023-05-16T00:50:18.479Z,32.18
2023-05-16T00:51:18.538Z,32.20
2023-05-16T00:52:18.561Z,32.22
2023-05-16T00:53:18.588Z,32.22
2023-05-16T00:54:18.665Z,32.28
2023-05-16T00:55:18.667Z,32.24
2023-05-16T00:56:18.705Z,32.24
2023-05-16T00:57:18.782Z,32.31
2023-05-16T00:58:18.831Z,32.27
2023-05-16T00:59:18.925Z,32.28
2023-05-16T01:00:18.925Z,32.32
2023-05-16T01:01:18.999Z,32.35
2023-05-16T01:02:19.029Z,32.32
2023-05-16T01:03:19.198Z,32.35
2023-05-16T01:04:19.083Z,32.29
2023-05-16T01:05:19.140Z,32.31
2023-05-16T01:06:19.173Z,32.32
2023-05-16T01:07:19.198Z,32.43
2023-05-16T01:08:19.253Z,32.36
2023-05-16T01:09:19.339Z,32.40
2023-05-16T01:10:19.379Z,32.43
2023-05-16T01:11:19.413Z,32.45
2023-05-16T01:12:19.502Z,32.48
2023-05-16T01:13:19.535Z,32.43
2023-05-16T01:14:19.566Z,32.45
2023-05-16T01:15:19.618Z,32.44
2023-05-16T01:16:19.692Z,32.50
2023-05-16T01:17:19.765Z,32.49
2023-05-16T01:18:19.795Z,32.54
2023-05-16T01:19:19.865Z,32.54
2023-05-16T01:20:19.861Z,32.51
2023-05-16T01:21:19.980Z,32.55
2023-05-16T01:22:19.962Z,32.55
2023-05-16T01:23:20.015Z,32.57
2023-05-16T01:24:20.111Z,32.58
2023-05-16T01:25:20.124Z,32.64
2023-05-16T01:26:20.220Z,32.64
2023-05-16T01:27:20.382Z,32.64
2023-05-16T01:28:20.367Z,32.62
2023-05-16T01:29:20.382Z,32.65
2023-05-16T01:30:20.502Z,32.73
2023-05-16T01:31:20.495Z,32.78
2023-05-16T01:32:20.525Z,32.76
2023-05-16T01:33:20.591Z,32.76
2023-05-16T01:34:20.609Z,32.70
2023-05-16T01:35:20.723Z,32.69
2023-05-16T01:36:20.783Z,32.72
2023-05-16T01:37:20.789Z,32.72
2023-05-16T01:38:20.829Z,32.73
2023-05-16T01:39:20.899Z,32.68
2023-05-16T01:40:20.936Z,32.70
2023-05-16T01:41:21.031Z,32.66
2023-05-16T01:42:21.067Z,32.66
2023-05-16T01:43:21.079Z,32.68
2023-05-16T01:44:21.144Z,32.72
2023-05-16T01:45:21.275Z,32.70
2023-05-16T01:46:21.346Z,32.69
2023-05-16T01:47:21.327Z,32.69
2023-05-16T01:48:21.424Z,32.66
2023-05-16T01:49:21.509Z,32.67
2023-05-16T01:50:21.536Z,32.70
2023-05-16T01:51:21.610Z,32.63
2023-05-16T01:52:21.723Z,32.67
2023-05-16T01:53:21.720Z,32.65
2023-05-16T01:54:21.754Z,32.66
2023-05-16T01:55:21.877Z,32.61
2023-05-16T01:56:21.887Z,32.63
2023-05-16T01:57:21.979Z,32.66
2023-05-16T01:58:21.999Z,32.61
2023-05-16T01:59:22.027Z,32.64
2023-05-16T02:00:22.083Z,32.65
2023-05-16T02:01:22.239Z,32.62
2023-05-16T02:02:22.223Z,32.55
2023-05-16T02:03:22.340Z,32.53
2023-05-16T02:04:22.344Z,32.61
2023-05-16T02:05:22.372Z,32.57
2023-05-16T02:06:22.463Z,32.52
2023-05-16T02:07:22.486Z,32.51
2023-05-16T02:08:22.566Z,32.54
2023-05-16T02:09:22.569Z,32.52
2023-05-16T02:10:22.680Z,32.52
2023-05-16T02:11:22.717Z,32.52
2023-05-16T02:12:22.733Z,32.59
2023-05-16T02:13:22.822Z,32.62
2023-05-16T02:14:22.889Z,32.66
2023-05-16T02:15:23.465Z,32.65
2023-05-16T02:16:23.024Z,32.72
2023-05-16T02:17:23.061Z,32.75
2023-05-16T02:18:23.082Z,32.76
2023-05-16T02:19:23.230Z,32.75
2023-05-16T02:20:23.189Z,32.76
2023-05-16T02:21:23.247Z,32.81
2023-05-16T02:22:23.306Z,32.83
2023-05-16T02:23:23.361Z,32.84
2023-05-16T02:24:23.435Z,32.86
2023-05-16T02:25:23.488Z,32.91
2023-05-16T02:26:23.531Z,32.94
2023-05-16T02:27:23.589Z,33.00
2023-05-16T02:28:23.652Z,33.03
2023-05-16T02:29:23.751Z,33.01
2023-05-16T02:30:23.757Z,33.02
2023-05-16T02:31:23.897Z,33.03
2023-05-16T02:32:23.906Z,33.07
2023-05-16T02:33:23.988Z,33.07
2023-05-16T02:34:24.049Z,33.11
2023-05-16T02:35:24.378Z,33.02
2023-05-16T02:36:24.124Z,33.11
2023-05-16T02:37:24.302Z,33.12
2023-05-16T02:38:24.228Z,33.09
2023-05-16T02:39:24.232Z,33.12
2023-05-16T02:40:24.319Z,33.10
2023-05-16T02:41:24.418Z,33.08
2023-05-16T02:42:24.426Z,33.10
2023-05-16T02:43:24.471Z,33.09
2023-05-16T02:44:24.522Z,33.10
2023-05-16T02:45:24.746Z,33.16
2023-05-16T02:46:25.068Z,33.14
2023-05-16T02:47:24.794Z,33.16
2023-05-16T02:48:24.792Z,33.14
2023-05-16T02:49:24.815Z,33.17
2023-05-16T02:50:24.879Z,33.20
2023-05-16T02:51:25.003Z,33.17
2023-05-16T02:52:24.966Z,33.23
2023-05-16T02:53:25.046Z,33.24
2023-05-16T02:54:25.055Z,33.27
2023-05-16T02:55:25.138Z,33.27
2023-05-16T02:56:25.209Z,33.33
2023-05-16T02:57:25.218Z,33.34
2023-05-16T02:58:25.268Z,33.29
2023-05-16T02:59:25.263Z,33.33
2023-05-16T03:00:25.373Z,33.33
2023-05-16T03:01:25.389Z,33.35
2023-05-16T03:02:25.536Z,33.35
2023-05-16T03:03:25.494Z,33.44
2023-05-16T03:04:25.474Z,33.41
2023-05-16T03:05:27.221Z,33.41
2023-05-16T03:06:25.538Z,33.43
2023-05-16T03:07:25.617Z,33.38
2023-05-16T03:08:25.700Z,33.46
2023-05-16T03:09:25.766Z,33.39
2023-05-16T03:10:25.813Z,33.40
2023-05-16T03:11:25.850Z,33.32
2023-05-16T03:12:25.898Z,33.29
2023-05-16T03:13:25.982Z,33.29
2023-05-16T03:14:26.010Z,33.28
2023-05-16T03:15:26.421Z,33.24
2023-05-16T03:16:26.224Z,33.21
2023-05-16T03:17:26.270Z,33.20
2023-05-16T03:18:26.249Z,33.20
2023-05-16T03:19:26.392Z,33.13
2023-05-16T03:20:26.420Z,33.18
2023-05-16T03:21:26.426Z,33.22
2023-05-16T03:22:26.459Z,33.12
2023-05-16T03:23:26.534Z,33.13
2023-05-16T03:24:26.601Z,33.12
2023-05-16T03:25:26.822Z,33.13
2023-05-16T03:26:26.691Z,33.09
2023-05-16T03:27:26.802Z,33.02
2023-05-16T03:28:26.801Z,33.02
2023-05-16T03:29:26.872Z,33.05
2023-05-16T03:30:26.914Z,33.02
2023-05-16T03:31:27.018Z,33.07
2023-05-16T03:32:27.096Z,33.01
2023-05-16T03:33:27.105Z,33.05
2023-05-16T03:34:27.164Z,33.07
2023-05-16T03:35:27.368Z,33.07
2023-05-16T03:36:27.376Z,33.06
2023-05-16T03:37:27.389Z,33.09
2023-05-16T03:38:27.392Z,33.13
2023-05-16T03:39:27.471Z,33.14
2023-05-16T03:40:27.517Z,33.13
2023-05-16T03:41:27.573Z,33.14
2023-05-16T03:42:27.617Z,33.17
2023-05-16T03:43:27.654Z,33.13
2023-05-16T03:44:27.691Z,33.16
2023-05-16T03:45:28.002Z,33.13
2023-05-16T03:46:27.890Z,33.13
2023-05-16T03:47:27.887Z,33.21
2023-05-16T03:48:27.969Z,33.21
2023-05-16T03:49:28.042Z,33.17
2023-05-16T03:50:28.079Z,33.14
2023-05-16T03:51:28.146Z,33.12
2023-05-16T03:52:28.188Z,33.16
2023-05-16T03:53:28.221Z,33.10
2023-05-16T03:54:28.308Z,33.10
2023-05-16T03:55:28.480Z,33.08
2023-05-16T03:56:28.467Z,33.07
2023-05-16T03:57:28.450Z,33.05
2023-05-16T03:58:28.552Z,33.12
2023-05-16T03:59:28.566Z,33.10
2023-05-16T04:00:28.661Z,33.09
2023-05-16T04:01:28.716Z,33.09
2023-05-16T04:02:28.851Z,33.11
2023-05-16T04:03:29.035Z,33.13
2023-05-16T04:04:28.877Z,33.13
2023-05-16T04:05:29.183Z,33.13
2023-05-16T04:06:29.062Z,33.14
2023-05-16T04:07:29.086Z,33.14
2023-05-16T04:08:29.114Z,33.14
2023-05-16T04:09:29.147Z,33.18
2023-05-16T04:10:29.240Z,33.21
2023-05-16T04:11:29.313Z,33.22
2023-05-16T04:12:29.367Z,33.21
2023-05-16T04:13:29.407Z,33.15
2023-05-16T04:14:29.444Z,33.20
2023-05-16T04:15:29.731Z,33.21
2023-05-16T04:16:29.596Z,33.22
2023-05-16T04:17:29.643Z,33.28
2023-05-16T04:18:29.683Z,33.28
2023-05-16T04:19:29.713Z,33.28
2023-05-16T04:20:31.604Z,33.30
2023-05-16T04:21:29.745Z,33.35
2023-05-16T04:22:29.757Z,33.32
2023-05-16T04:23:29.752Z,33.36
2023-05-16T04:24:29.755Z,33.36
2023-05-16T04:25:29.958Z,33.36
2023-05-16T04:26:29.731Z,33.40
2023-05-16T04:27:29.718Z,33.38
2023-05-16T04:28:29.746Z,33.33
2023-05-16T04:29:29.750Z,33.36
2023-05-16T04:30:29.742Z,33.33
2023-05-16T04:31:29.813Z,33.37
2023-05-16T04:32:29.732Z,33.40
2023-05-16T04:33:29.670Z,33.39
2023-05-16T04:34:29.660Z,33.38
2023-05-16T04:35:29.836Z,33.43
2023-05-16T04:36:29.684Z,33.37
2023-05-16T04:37:29.660Z,33.42
2023-05-16T04:38:29.661Z,33.43
2023-05-16T04:39:29.633Z,33.44
2023-05-16T04:40:29.648Z,33.50
2023-05-16T04:41:29.651Z,33.49
2023-05-16T04:42:29.634Z,33.45
2023-05-16T04:43:29.600Z,33.53
2023-05-16T04:44:29.604Z,33.54
2023-05-16T04:45:29.722Z,33.57
2023-05-16T04:46:29.639Z,33.57
2023-05-16T04:47:29.651Z,33.61
2023-05-16T04:48:29.568Z,33.58
2023-05-16T04:49:29.562Z,33.57
2023-05-16T04:50:29.562Z,33.65
2023-05-16T04:51:29.559Z,33.55
2023-05-16T04:52:29.548Z,33.64
2023-05-16T04:53:29.538Z,33.57
2023-05-16T04:54:29.561Z,33.60
2023-05-16T04:55:29.881Z,33.61
2023-05-16T04:56:29.527Z,33.54
2023-05-16T04:57:29.511Z,33.54
2023-05-16T04:58:29.541Z,33.54
2023-05-16T04:59:29.542Z,33.50
2023-05-16T05:00:29.766Z,33.47
2023-05-16T05:01:29.516Z,33.48
2023-05-16T05:02:29.554Z,33.45
2023-05-16T05:03:29.452Z,33.53
2023-05-16T05:04:29.491Z,33.52
2023-05-16T05:05:29.801Z,33.58
2023-05-16T05:06:29.440Z,33.56
2023-05-16T05:07:29.489Z,33.62
2023-05-16T05:08:29.428Z,33.62
2023-05-16T05:09:29.444Z,33.70
2023-05-16T05:10:29.404Z,33.68
2023-05-16T05:11:29.431Z,33.76
2023-05-16T05:12:29.416Z,33.77
2023-05-16T05:13:29.388Z,33.84
2023-05-16T05:14:29.361Z,33.84
2023-05-16T05:15:29.573Z,33.92
2023-05-16T05:16:29.348Z,33.92
2023-05-16T05:17:29.437Z,33.96
2023-05-16T05:18:29.414Z,34.06
2023-05-16T05:19:29.411Z,34.09
2023-05-16T05:20:29.365Z,34.07
2023-05-16T05:21:29.324Z,34.09
2023-05-16T05:22:29.326Z,34.15
2023-05-16T05:23:29.291Z,34.13
2023-05-16T05:24:29.310Z,34.17
2023-05-16T05:25:29.518Z,34.21
2023-05-16T05:26:29.328Z,34.21
2023-05-16T05:27:29.323Z,34.25
2023-05-16T05:28:29.264Z,34.29
2023-05-16T05:29:29.284Z,34.20
2023-05-16T05:30:29.282Z,34.14
2023-05-16T05:31:29.294Z,34.11
2023-05-16T05:32:29.233Z,34.18
2023-05-16T05:33:29.283Z,34.61
2023-05-16T05:34:29.282Z,34.16
2023-05-16T05:35:29.506Z,34.45
2023-05-16T05:36:29.284Z,34.63
2023-05-16T05:37:29.341Z,34.77
2023-05-16T05:38:29.390Z,34.88
2023-05-16T05:39:29.430Z,34.99
2023-05-16T05:40:29.541Z,34.78
2023-05-16T05:41:29.561Z,35.28
2023-05-16T05:42:29.620Z,35.55
2023-05-16T05:43:29.666Z,35.50
2023-05-16T05:44:29.678Z,36.03
2023-05-16T05:45:29.925Z,35.94
2023-05-16T05:46:29.756Z,35.93
2023-05-16T05:47:29.817Z,35.64
2023-05-16T05:48:29.771Z,35.89
2023-05-16T05:49:29.838Z,35.74
2023-05-16T05:50:29.817Z,35.55
2023-05-16T05:51:30.035Z,35.40
2023-05-16T05:52:30.033Z,35.49
2023-05-16T05:53:30.578Z,35.45
2023-05-16T05:54:30.058Z,35.34
2023-05-16T05:55:30.142Z,35.32
2023-05-16T05:56:29.861Z,35.29
2023-05-16T05:57:30.074Z,35.17
2023-05-16T05:58:30.033Z,35.22
2023-05-16T05:59:30.094Z,35.01
2023-05-16T06:00:30.103Z,35.33
2023-05-16T06:01:30.072Z,35.65
2023-05-16T06:02:30.262Z,35.50
2023-05-16T06:03:30.258Z,35.93
2023-05-16T06:04:31.048Z,35.76
2023-05-16T06:05:30.612Z,35.88
2023-05-16T06:06:30.403Z,35.80
2023-05-16T06:07:30.397Z,35.90
2023-05-16T06:08:30.509Z,35.98
2023-05-16T06:09:30.519Z,35.95
2023-05-16T06:10:30.569Z,36.01
2023-05-16T06:11:30.645Z,36.16
2023-05-16T06:12:30.697Z,36.16
2023-05-16T06:13:30.745Z,36.15
2023-05-16T06:14:30.822Z,36.16
2023-05-16T06:15:31.078Z,36.24
2023-05-16T06:16:30.905Z,36.22
2023-05-16T06:17:30.925Z,36.28
2023-05-16T06:18:31.041Z,36.25
2023-05-16T06:19:31.110Z,36.27
2023-05-16T06:20:31.123Z,36.31
2023-05-16T06:21:31.084Z,36.28
2023-05-16T06:22:31.126Z,36.32
2023-05-16T06:23:31.180Z,36.36
2023-05-16T06:24:31.539Z,36.36
2023-05-16T06:25:31.283Z,36.39
2023-05-16T06:26:31.290Z,36.43
2023-05-16T06:27:31.419Z,36.46
2023-05-16T06:28:31.324Z,36.47
2023-05-16T06:29:31.388Z,36.47
2023-05-16T06:30:31.439Z,36.45
2023-05-16T06:31:31.883Z,36.55
2023-05-16T06:32:31.846Z,36.63
2023-05-16T06:33:31.446Z,36.72
2023-05-16T06:34:31.470Z,36.95
2023-05-16T06:35:31.524Z,37.32
2023-05-16T06:36:31.686Z,37.42
2023-05-16T06:37:31.559Z,37.25
2023-05-16T06:38:32.128Z,37.00
2023-05-16T06:39:32.119Z,37.06
2023-05-16T06:40:32.065Z,37.19
2023-05-16T06:41:31.701Z,36.98
2023-05-16T06:42:32.087Z,37.13
2023-05-16T06:43:31.784Z,37.00
2023-05-16T06:44:31.894Z,37.01
2023-05-16T06:45:31.845Z,37.10
2023-05-16T06:46:31.933Z,36.38
2023-05-16T06:47:31.961Z,36.04
2023-05-16T06:48:32.035Z,36.36
2023-05-16T06:49:32.062Z,36.09
2023-05-16T06:50:32.084Z,36.27
2023-05-16T06:51:32.158Z,36.16
2023-05-16T06:52:32.158Z,36.39
2023-05-16T06:53:32.168Z,36.66
2023-05-16T06:54:32.265Z,36.66
2023-05-16T06:55:32.272Z,36.58
2023-05-16T06:56:32.278Z,36.80
2023-05-16T06:57:32.336Z,36.80
2023-05-16T06:58:32.453Z,36.78
2023-05-16T06:59:32.503Z,36.81
2023-05-16T07:00:32.507Z,36.74
2023-05-16T07:01:32.629Z,36.67
2023-05-16T07:02:32.770Z,36.76
2023-05-16T07:03:32.774Z,36.88
2023-05-16T07:04:32.753Z,36.85
2023-05-16T07:05:32.804Z,37.04
2023-05-16T07:06:32.856Z,36.90
2023-05-16T07:07:32.917Z,37.12
2023-05-16T07:08:32.972Z,36.99
2023-05-16T07:09:33.076Z,36.96
2023-05-16T07:10:33.084Z,36.92
2023-05-16T07:11:33.109Z,36.90
2023-05-16T07:12:33.138Z,36.97
2023-05-16T07:13:35.041Z,37.17
2023-05-16T07:14:33.254Z,37.02
2023-05-16T07:15:33.767Z,36.99
2023-05-16T07:16:33.317Z,37.05
2023-05-16T07:17:33.233Z,37.10
2023-05-16T07:18:33.166Z,37.12
2023-05-16T07:19:33.146Z,36.88
2023-05-16T07:20:33.154Z,36.08
2023-05-16T07:21:33.584Z,35.62
2023-05-16T07:22:33.602Z,35.48
2023-05-16T07:23:33.125Z,35.39
2023-05-16T07:24:34.115Z,35.41
2023-05-16T07:25:33.089Z,35.40
2023-05-16T07:26:33.601Z,35.52
2023-05-16T07:27:33.117Z,35.52
2023-05-16T07:28:33.733Z,35.79
2023-05-16T07:29:33.063Z,35.94
2023-05-16T07:30:33.088Z,36.07
2023-05-16T07:31:33.090Z,36.37
2023-05-16T07:32:33.104Z,36.35
2023-05-16T07:33:33.040Z,36.38
2023-05-16T07:34:33.105Z,35.87
2023-05-16T07:35:33.060Z,36.00
2023-05-16T07:36:33.052Z,35.85
2023-05-16T07:37:33.020Z,35.89
2023-05-16T07:38:33.580Z,35.91
2023-05-16T07:39:33.014Z,35.84
2023-05-16T07:40:33.028Z,35.85
2023-05-16T07:41:32.983Z,35.91
2023-05-16T07:42:33.001Z,35.85
2023-05-16T07:43:32.948Z,36.07
2023-05-16T07:44:32.957Z,35.93
2023-05-16T07:45:32.961Z,35.82
2023-05-16T07:46:33.162Z,35.85
2023-05-16T07:47:32.955Z,35.98
2023-05-16T07:48:32.966Z,35.90
2023-05-16T07:49:32.941Z,35.89
2023-05-16T07:50:32.948Z,35.81
2023-05-16T07:51:32.894Z,36.14
2023-05-16T07:52:32.904Z,36.25
2023-05-16T07:53:32.957Z,36.26
2023-05-16T07:54:33.299Z,36.30
2023-05-16T07:55:33.292Z,36.26
2023-05-16T07:56:32.886Z,36.33
2023-05-16T07:57:32.840Z,36.34
2023-05-16T07:58:33.632Z,36.35
2023-05-16T07:59:33.070Z,36.36
2023-05-16T08:00:33.617Z,36.36
2023-05-16T08:01:32.863Z,36.38
2023-05-16T08:02:33.015Z,36.43
2023-05-16T08:03:33.205Z,36.46
2023-05-16T08:04:32.954Z,36.49
2023-05-16T08:05:33.016Z,36.53
2023-05-16T08:06:33.612Z,36.51
2023-05-16T08:07:33.031Z,36.59
2023-05-16T08:08:33.645Z,36.64
2023-05-16T08:09:33.035Z,36.67
2023-05-16T08:10:33.113Z,36.69
2023-05-16T08:11:33.042Z,36.76
2023-05-16T08:12:33.038Z,36.74
2023-05-16T08:13:33.052Z,36.75
2023-05-16T08:14:33.085Z,36.88
2023-05-16T08:15:33.118Z,36.85
2023-05-16T08:16:33.693Z,36.68
2023-05-16T08:17:33.167Z,36.09
2023-05-16T08:18:33.178Z,35.79
2023-05-16T08:19:33.717Z,35.61
2023-05-16T08:20:33.157Z,35.58
2023-05-16T08:21:33.263Z,35.84
2023-05-16T08:22:33.595Z,35.75
2023-05-16T08:23:33.476Z,35.56
2023-05-16T08:24:33.394Z,35.50
2023-05-16T08:25:33.399Z,35.59
2023-05-16T08:26:33.603Z,35.79
2023-05-16T08:27:33.517Z,36.14
2023-05-16T08:28:33.515Z,36.69
2023-05-16T08:29:33.624Z,36.58
2023-05-16T08:30:33.637Z,36.69
2023-05-16T08:31:33.711Z,36.49
2023-05-16T08:32:33.777Z,36.75
2023-05-16T08:33:33.772Z,36.41
2023-05-16T08:34:33.699Z,36.54
2023-05-16T08:35:33.783Z,35.82
2023-05-16T08:36:33.774Z,35.84
2023-05-16T08:37:33.788Z,35.80
2023-05-16T08:38:33.794Z,35.93
2023-05-16T08:39:33.795Z,35.82
2023-05-16T08:40:33.792Z,36.35
2023-05-16T08:41:33.852Z,36.48
2023-05-16T08:42:34.120Z,36.58
2023-05-16T08:43:34.074Z,36.36
2023-05-16T08:44:33.924Z,36.26
2023-05-16T08:45:34.006Z,36.05
2023-05-16T08:46:34.634Z,37.11
2023-05-16T08:47:34.065Z,36.56
2023-05-16T08:48:33.961Z,36.53
2023-05-16T08:49:33.969Z,36.37
2023-05-16T08:50:34.129Z,36.47
2023-05-16T08:51:34.165Z,36.12
2023-05-16T08:52:34.122Z,36.34
2023-05-16T08:53:34.203Z,35.97
2023-05-16T08:54:34.286Z,35.75
2023-05-16T08:55:34.326Z,35.73
2023-05-16T08:56:34.319Z,35.92
2023-05-16T08:57:34.451Z,35.90
2023-05-16T08:58:34.442Z,35.90
2023-05-16T08:59:34.491Z,35.94
2023-05-16T09:00:34.564Z,35.95
2023-05-16T09:01:34.682Z,35.97
2023-05-16T09:02:35.158Z,36.04
2023-05-16T09:03:34.537Z,36.07
2023-05-16T09:04:34.778Z,36.10
2023-05-16T09:05:34.703Z,36.12
2023-05-16T09:06:34.549Z,36.16
2023-05-16T09:07:34.521Z,36.20
2023-05-16T09:08:34.563Z,36.24
2023-05-16T09:09:34.582Z,36.29
2023-05-16T09:10:34.552Z,36.34
2023-05-16T09:11:36.765Z,36.42
2023-05-16T09:12:34.792Z,36.47
2023-05-16T09:13:34.823Z,36.51
2023-05-16T09:14:34.852Z,36.66
2023-05-16T09:15:35.076Z,36.66
2023-05-16T09:16:35.025Z,36.74
2023-05-16T09:17:40.105Z,36.44
2023-05-16T09:18:36.394Z,35.50
2023-05-16T09:19:35.073Z,35.09
2023-05-16T09:20:35.154Z,35.16
2023-05-16T09:21:35.236Z,34.74
2023-05-16T09:22:35.041Z,34.72
2023-05-16T09:23:37.086Z,34.60
2023-05-16T09:24:35.032Z,34.58
2023-05-16T09:25:35.215Z,34.55
2023-05-16T09:26:35.067Z,34.47
2023-05-16T09:27:40.180Z,34.46
2023-05-16T09:28:35.123Z,34.76
2023-05-16T09:29:36.703Z,35.34
2023-05-16T09:30:35.308Z,35.55
2023-05-16T09:31:36.925Z,35.96
2023-05-16T09:32:35.171Z,36.14
2023-05-16T09:33:35.100Z,36.13
2023-05-16T09:34:35.054Z,35.96
2023-05-16T09:35:44.864Z,35.94
2023-05-16T09:36:36.134Z,35.96
2023-05-16T09:37:35.039Z,35.94
2023-05-16T09:38:35.176Z,35.91
2023-05-16T09:39:35.133Z,35.94
2023-05-16T09:40:35.033Z,35.84
2023-05-16T09:41:35.056Z,35.86
2023-05-16T09:42:34.992Z,35.80
2023-05-16T09:43:37.264Z,35.79
2023-05-16T09:44:35.015Z,35.73
2023-05-16T09:45:34.993Z,35.76
2023-05-16T09:46:35.064Z,35.73
2023-05-16T09:47:34.982Z,35.75
2023-05-16T09:48:35.021Z,35.72
2023-05-16T09:49:35.020Z,35.72
2023-05-16T09:50:35.016Z,35.71
2023-05-16T09:51:34.969Z,35.66
2023-05-16T09:52:34.945Z,35.68
2023-05-16T09:53:34.976Z,35.67
2023-05-16T09:54:34.924Z,35.64
2023-05-16T09:55:35.009Z,35.63
2023-05-16T09:56:35.132Z,35.64
2023-05-16T09:57:34.919Z,35.64
2023-05-16T09:58:34.913Z,35.58
2023-05-16T09:59:34.907Z,35.56
2023-05-16T10:00:34.936Z,35.56
2023-05-16T10:01:34.940Z,35.55
2023-05-16T10:02:34.979Z,35.52
2023-05-16T10:03:34.988Z,35.52
2023-05-16T10:04:34.921Z,35.49
2023-05-16T10:05:34.999Z,35.48
2023-05-16T10:06:34.840Z,35.51
2023-05-16T10:07:34.828Z,35.49
2023-05-16T10:08:34.807Z,35.51
2023-05-16T10:09:34.820Z,35.49
2023-05-16T10:10:34.777Z,35.52
2023-05-16T10:11:34.838Z,35.48
2023-05-16T10:12:34.837Z,35.51
2023-05-16T10:13:34.813Z,35.49
2023-05-16T10:14:34.810Z,35.47
2023-05-16T10:15:34.808Z,35.51
2023-05-16T10:16:34.865Z,35.49
2023-05-16T10:17:34.789Z,35.51
2023-05-16T10:18:34.863Z,35.51
2023-05-16T10:19:34.781Z,35.48
2023-05-16T10:20:34.748Z,35.46
2023-05-16T10:21:34.757Z,35.44
2023-05-16T10:22:34.752Z,35.46
2023-05-16T10:23:34.732Z,35.45
2023-05-16T10:24:34.744Z,35.41
2023-05-16T10:25:34.734Z,35.39
2023-05-16T10:26:34.791Z,35.37
2023-05-16T10:27:34.695Z,35.36
2023-05-16T10:28:34.698Z,35.35
2023-05-16T10:29:43.257Z,35.35
2023-05-16T10:30:35.805Z,35.34
2023-05-16T10:31:34.674Z,35.33
2023-05-16T10:32:35.215Z,35.33
2023-05-16T10:33:34.687Z,35.29
2023-05-16T10:34:34.636Z,35.33
2023-05-16T10:35:34.688Z,35.30
2023-05-16T10:36:34.621Z,35.29
2023-05-16T10:37:34.682Z,35.32
2023-05-16T10:38:34.657Z,35.19
2023-05-16T10:39:34.606Z,35.24
2023-05-16T10:40:34.623Z,35.22
2023-05-16T10:41:34.629Z,35.28
2023-05-16T10:42:34.591Z,35.24
2023-05-16T10:43:34.600Z,35.24
2023-05-16T10:44:34.594Z,35.19
2023-05-16T10:45:34.688Z,35.17
2023-05-16T10:46:34.727Z,35.20
2023-05-16T10:47:34.845Z,35.19
2023-05-16T10:48:34.749Z,35.16
2023-05-16T10:49:34.795Z,35.12
2023-05-16T10:50:34.821Z,35.16
2023-05-16T10:51:34.873Z,35.13
2023-05-16T10:52:35.230Z,35.17
2023-05-16T10:53:35.015Z,35.12
2023-05-16T10:54:35.006Z,35.10
2023-05-16T10:55:35.028Z,35.11
2023-05-16T10:56:35.144Z,35.13
2023-05-16T10:57:35.143Z,35.12
2023-05-16T10:58:35.242Z,35.13
2023-05-16T10:59:35.239Z,35.12
2023-05-16T11:00:35.264Z,35.12
2023-05-16T11:01:35.401Z,35.11
2023-05-16T11:02:35.402Z,35.08
2023-05-16T11:03:35.387Z,35.07
2023-05-16T11:04:35.360Z,35.08
2023-05-16T11:05:35.408Z,35.05
2023-05-16T11:06:35.444Z,35.02
2023-05-16T11:07:35.517Z,35.07
2023-05-16T11:08:35.528Z,35.06
2023-05-16T11:09:35.527Z,35.09
2023-05-16T11:10:35.553Z,35.08
2023-05-16T11:11:35.585Z,35.07
2023-05-16T11:12:35.764Z,35.04
2023-05-16T11:13:35.665Z,35.02
2023-05-16T11:14:35.672Z,35.11
2023-05-16T11:15:35.740Z,35.08
2023-05-16T11:16:35.776Z,35.13
2023-05-16T11:17:37.055Z,35.11
2023-05-16T11:18:35.832Z,35.11
2023-05-16T11:19:35.814Z,35.09
2023-05-16T11:20:36.216Z,35.11
2023-05-16T11:21:35.865Z,35.10
2023-05-16T11:22:36.340Z,35.07
2023-05-16T11:23:35.928Z,35.10
2023-05-16T11:24:35.971Z,35.11
2023-05-16T11:25:36.002Z,35.11
2023-05-16T11:26:36.013Z,35.08
2023-05-16T11:27:36.104Z,35.03
2023-05-16T11:28:36.122Z,35.06
2023-05-16T11:29:36.195Z,35.03
2023-05-16T11:30:36.257Z,35.02
2023-05-16T11:31:36.226Z,35.01
2023-05-16T11:32:36.349Z,34.98
2023-05-16T11:33:36.291Z,35.02
2023-05-16T11:34:36.303Z,34.96
2023-05-16T11:35:36.389Z,34.97
2023-05-16T11:36:36.372Z,34.93
2023-05-16T11:37:36.465Z,34.92
2023-05-16T11:38:36.450Z,34.88
2023-05-16T11:39:36.517Z,34.92
2023-05-16T11:40:36.585Z,34.89
2023-05-16T11:41:36.578Z,34.86
2023-05-16T11:42:36.594Z,34.86
2023-05-16T11:43:36.648Z,34.84
2023-05-16T11:44:36.670Z,34.83
2023-05-16T11:45:36.741Z,34.83
2023-05-16T11:46:36.772Z,34.84
2023-05-16T11:47:36.897Z,34.79
2023-05-16T11:48:37.041Z,34.79
2023-05-16T11:49:36.867Z,34.75
2023-05-16T11:50:36.870Z,34.79
2023-05-16T11:51:36.879Z,34.75
2023-05-16T11:52:36.951Z,34.77
2023-05-16T11:53:36.956Z,34.76
2023-05-16T11:54:37.006Z,34.70
2023-05-16T11:56:37.002Z,34.73
2023-05-16T11:57:36.981Z,34.70
2023-05-16T11:58:37.006Z,34.72
2023-05-16T11:59:36.976Z,34.71
2023-05-16T12:00:37.002Z,34.73
2023-05-16T12:01:36.994Z,34.69
2023-05-16T12:02:37.100Z,34.68
2023-05-16T12:03:37.233Z,34.70
2023-05-16T12:04:37.017Z,34.69
2023-05-16T12:05:37.033Z,34.70
2023-05-16T12:06:36.966Z,34.66
2023-05-16T12:07:36.950Z,34.63
2023-05-16T12:08:36.939Z,34.66
2023-05-16T12:09:36.918Z,34.66
2023-05-16T12:10:36.925Z,34.65
2023-05-16T12:11:36.909Z,34.69
2023-05-16T12:12:36.894Z,34.65
2023-05-16T12:13:36.873Z,34.65
2023-05-16T12:14:36.971Z,34.66
2023-05-16T12:15:37.208Z,34.67
2023-05-16T12:16:36.864Z,34.66
2023-05-16T12:17:36.865Z,34.68
2023-05-16T12:18:36.964Z,34.65
2023-05-16T12:19:36.832Z,34.66
2023-05-16T12:20:36.837Z,34.66
2023-05-16T12:21:36.872Z,34.67
2023-05-16T12:22:36.851Z,34.65
2023-05-16T12:23:36.828Z,34.65
2023-05-16T12:24:36.826Z,34.68
2023-05-16T12:25:36.789Z,34.64
2023-05-16T12:26:36.776Z,34.65
2023-05-16T12:27:37.275Z,34.67
2023-05-16T12:28:36.804Z,34.69
2023-05-16T12:29:36.775Z,34.66
2023-05-16T12:30:36.912Z,34.66
2023-05-16T12:31:37.138Z,34.65
2023-05-16T12:32:37.093Z,34.62
2023-05-16T12:33:36.763Z,34.57
2023-05-16T12:34:36.724Z,34.62
2023-05-16T12:35:36.773Z,34.63
2023-05-16T12:36:36.722Z,34.59
2023-05-16T12:37:36.760Z,34.59
2023-05-16T12:38:36.682Z,34.58
2023-05-16T12:39:36.683Z,34.59
2023-05-16T12:40:36.692Z,34.57
2023-05-16T12:41:36.707Z,34.58
2023-05-16T12:42:36.664Z,34.53
2023-05-16T12:43:36.724Z,34.53
2023-05-16T12:44:36.674Z,34.57
2023-05-16T12:45:36.643Z,34.53
2023-05-16T12:46:36.693Z,34.53
2023-05-16T12:47:36.714Z,34.54
2023-05-16T12:48:36.634Z,34.52
2023-05-16T12:49:36.602Z,34.51
2023-05-16T12:50:36.650Z,34.52
2023-05-16T12:51:36.690Z,34.52
2023-05-16T12:52:36.662Z,34.54
2023-05-16T12:53:36.622Z,34.54